Terminal Aerodrome Forecast
Issued by NWS Sterling, VA

Current Version | Previous Version | Text Only | Print | Product List | Glossary Off
Versions: 1 2 3 4 5 6 7 8 9 10 11 12 13 14 15 16 17 18 19 20 21 22 23 24 25

000
FTUS41 KLWX 212100 AAB
TAFIAD
TAF AMD
KIAD 212143Z 2122/2224 VRB06KT 6SM -TSRA OVC030CB
     FM212230 25005KT P6SM BKN050
     FM220400 VRB03KT P6SM BKN120=

USA.gov is the U.S. government's official web portal to all federal, state and local government web resources and services.